sensor_id;sensor_type;location;lat;lon;timestamp;P1;durP1;ratioP1;P2;durP2;ratioP2
19863;SDS011;10094;48.820;9.226;2022-12-07T00:02:47;11.75;;;8.05;;
19863;SDS011;10094;48.820;9.226;2022-12-07T00:09:29;11.30;;;7.95;;
19863;SDS011;10094;48.820;9.226;2022-12-07T00:16:12;9.27;;;7.30;;
19863;SDS011;10094;48.820;9.226;2022-12-07T00:23:00;11.90;;;8.65;;
19863;SDS011;10094;48.820;9.226;2022-12-07T00:29:42;10.43;;;8.75;;
19863;SDS011;10094;48.820;9.226;2022-12-07T00:36:24;8.38;;;7.43;;
19863;SDS011;10094;48.820;9.226;2022-12-07T00:43:08;9.35;;;7.60;;
19863;SDS011;10094;48.820;9.226;2022-12-07T00:49:50;10.43;;;8.18;;
19863;SDS011;10094;48.820;9.226;2022-12-07T00:56:33;9.20;;;7.35;;
19863;SDS011;10094;48.820;9.226;2022-12-07T01:03:16;10.13;;;7.75;;
19863;SDS011;10094;48.820;9.226;2022-12-07T01:09:59;10.95;;;8.50;;
19863;SDS011;10094;48.820;9.226;2022-12-07T01:16:42;10.20;;;7.30;;
19863;SDS011;10094;48.820;9.226;2022-12-07T01:23:24;11.63;;;8.10;;
19863;SDS011;10094;48.820;9.226;2022-12-07T01:30:07;11.05;;;9.18;;
19863;SDS011;10094;48.820;9.226;2022-12-07T01:36:50;13.55;;;9.07;;
19863;SDS011;10094;48.820;9.226;2022-12-07T01:43:33;9.75;;;8.23;;
19863;SDS011;10094;48.820;9.226;2022-12-07T01:50:15;13.75;;;9.93;;
19863;SDS011;10094;48.820;9.226;2022-12-07T01:56:58;11.50;;;8.48;;
19863;SDS011;10094;48.820;9.226;2022-12-07T02:03:42;11.48;;;8.23;;
19863;SDS011;10094;48.820;9.226;2022-12-07T02:10:27;10.52;;;8.68;;
19863;SDS011;10094;48.820;9.226;2022-12-07T02:17:13;11.00;;;9.02;;
19863;SDS011;10094;48.820;9.226;2022-12-07T02:31:03;11.32;;;8.80;;
19863;SDS011;10094;48.820;9.226;2022-12-07T02:37:58;14.18;;;9.52;;
19863;SDS011;10094;48.820;9.226;2022-12-07T02:44:50;11.30;;;8.40;;
19863;SDS011;10094;48.820;9.226;2022-12-07T02:51:34;13.65;;;8.95;;
19863;SDS011;10094;48.820;9.226;2022-12-07T02:58:32;9.65;;;7.93;;
19863;SDS011;10094;48.820;9.226;2022-12-07T03:12:24;11.90;;;8.23;;
19863;SDS011;10094;48.820;9.226;2022-12-07T03:19:17;10.98;;;7.80;;
19863;SDS011;10094;48.820;9.226;2022-12-07T03:26:02;12.23;;;8.23;;
19863;SDS011;10094;48.820;9.226;2022-12-07T03:32:50;13.43;;;8.77;;
19863;SDS011;10094;48.820;9.226;2022-12-07T03:54:02;10.75;;;8.43;;
19863;SDS011;10094;48.820;9.226;2022-12-07T04:01:01;11.25;;;8.18;;
19863;SDS011;10094;48.820;9.226;2022-12-07T04:07:44;12.50;;;8.88;;
19863;SDS011;10094;48.820;9.226;2022-12-07T04:14:27;10.27;;;7.80;;
19863;SDS011;10094;48.820;9.226;2022-12-07T04:21:09;11.48;;;8.70;;
19863;SDS011;10094;48.820;9.226;2022-12-07T04:27:51;14.23;;;8.77;;
19863;SDS011;10094;48.820;9.226;2022-12-07T04:34:34;13.48;;;9.35;;
19863;SDS011;10094;48.820;9.226;2022-12-07T04:41:16;12.85;;;9.73;;
19863;SDS011;10094;48.820;9.226;2022-12-07T04:47:58;15.80;;;9.18;;
19863;SDS011;10094;48.820;9.226;2022-12-07T04:54:41;12.13;;;8.95;;
19863;SDS011;10094;48.820;9.226;2022-12-07T05:01:24;13.07;;;8.75;;
19863;SDS011;10094;48.820;9.226;2022-12-07T05:08:06;13.15;;;8.90;;
19863;SDS011;10094;48.820;9.226;2022-12-07T05:14:49;12.02;;;8.63;;
19863;SDS011;10094;48.820;9.226;2022-12-07T05:21:31;13.77;;;8.93;;
19863;SDS011;10094;48.820;9.226;2022-12-07T05:28:14;11.75;;;8.35;;
19863;SDS011;10094;48.820;9.226;2022-12-07T05:34:56;12.57;;;9.32;;
19863;SDS011;10094;48.820;9.226;2022-12-07T05:41:38;13.07;;;8.55;;
19863;SDS011;10094;48.820;9.226;2022-12-07T05:48:39;13.77;;;9.25;;
19863;SDS011;10094;48.820;9.226;2022-12-07T05:55:22;12.60;;;9.63;;
19863;SDS011;10094;48.820;9.226;2022-12-07T06:02:05;14.52;;;9.00;;
19863;SDS011;10094;48.820;9.226;2022-12-07T06:08:49;12.18;;;9.20;;
19863;SDS011;10094;48.820;9.226;2022-12-07T06:15:32;16.08;;;9.88;;
19863;SDS011;10094;48.820;9.226;2022-12-07T06:22:14;15.85;;;10.07;;
19863;SDS011;10094;48.820;9.226;2022-12-07T06:28:58;13.27;;;9.25;;
19863;SDS011;10094;48.820;9.226;2022-12-07T06:35:40;14.15;;;9.30;;
19863;SDS011;10094;48.820;9.226;2022-12-07T06:42:23;15.60;;;9.85;;
19863;SDS011;10094;48.820;9.226;2022-12-07T06:49:05;16.13;;;9.32;;
19863;SDS011;10094;48.820;9.226;2022-12-07T06:55:48;15.70;;;9.43;;
19863;SDS011;10094;48.820;9.226;2022-12-07T07:02:31;16.30;;;9.32;;
19863;SDS011;10094;48.820;9.226;2022-12-07T07:09:16;13.40;;;8.60;;
19863;SDS011;10094;48.820;9.226;2022-12-07T07:15:59;24.75;;;9.68;;
19863;SDS011;10094;48.820;9.226;2022-12-07T07:22:41;21.25;;;9.15;;
19863;SDS011;10094;48.820;9.226;2022-12-07T07:29:24;12.70;;;8.52;;
19863;SDS011;10094;48.820;9.226;2022-12-07T07:36:06;18.05;;;7.95;;
19863;SDS011;10094;48.820;9.226;2022-12-07T07:42:49;11.30;;;7.03;;
19863;SDS011;10094;48.820;9.226;2022-12-07T07:49:33;14.57;;;8.07;;
19863;SDS011;10094;48.820;9.226;2022-12-07T07:56:15;16.30;;;8.10;;
19863;SDS011;10094;48.820;9.226;2022-12-07T08:02:58;10.95;;;6.53;;
19863;SDS011;10094;48.820;9.226;2022-12-07T08:09:41;8.75;;;5.70;;
19863;SDS011;10094;48.820;9.226;2022-12-07T08:16:23;6.50;;;5.32;;
19863;SDS011;10094;48.820;9.226;2022-12-07T08:23:06;8.50;;;5.53;;
19863;SDS011;10094;48.820;9.226;2022-12-07T08:29:50;9.40;;;5.13;;
19863;SDS011;10094;48.820;9.226;2022-12-07T08:36:32;9.73;;;6.07;;
19863;SDS011;10094;48.820;9.226;2022-12-07T08:43:14;18.00;;;5.55;;
19863;SDS011;10094;48.820;9.226;2022-12-07T08:49:57;11.25;;;5.50;;
19863;SDS011;10094;48.820;9.226;2022-12-07T08:56:46;7.57;;;5.10;;
19863;SDS011;10094;48.820;9.226;2022-12-07T09:03:39;7.75;;;5.20;;
19863;SDS011;10094;48.820;9.226;2022-12-07T09:10:21;8.30;;;5.45;;
19863;SDS011;10094;48.820;9.226;2022-12-07T09:17:09;8.15;;;5.35;;
19863;SDS011;10094;48.820;9.226;2022-12-07T09:23:53;8.80;;;5.57;;
19863;SDS011;10094;48.820;9.226;2022-12-07T09:30:35;7.00;;;4.75;;
19863;SDS011;10094;48.820;9.226;2022-12-07T09:37:38;10.05;;;4.10;;
19863;SDS011;10094;48.820;9.226;2022-12-07T09:44:21;5.20;;;3.97;;
19863;SDS011;10094;48.820;9.226;2022-12-07T09:51:19;4.85;;;4.13;;
19863;SDS011;10094;48.820;9.226;2022-12-07T09:58:06;5.78;;;3.70;;
19863;SDS011;10094;48.820;9.226;2022-12-07T10:04:50;6.70;;;4.63;;
19863;SDS011;10094;48.820;9.226;2022-12-07T10:11:32;4.88;;;3.38;;
19863;SDS011;10094;48.820;9.226;2022-12-07T10:18:19;4.25;;;3.65;;
19863;SDS011;10094;48.820;9.226;2022-12-07T10:25:09;6.28;;;4.15;;
19863;SDS011;10094;48.820;9.226;2022-12-07T10:32:02;5.68;;;4.30;;
19863;SDS011;10094;48.820;9.226;2022-12-07T10:38:59;6.30;;;4.72;;
19863;SDS011;10094;48.820;9.226;2022-12-07T11:00:46;4.25;;;3.80;;
19863;SDS011;10094;48.820;9.226;2022-12-07T11:07:34;5.05;;;3.78;;
19863;SDS011;10094;48.820;9.226;2022-12-07T11:14:45;4.65;;;4.10;;
19863;SDS011;10094;48.820;9.226;2022-12-07T11:21:56;5.40;;;3.95;;
19863;SDS011;10094;48.820;9.226;2022-12-07T11:36:17;3.35;;;3.00;;
19863;SDS011;10094;48.820;9.226;2022-12-07T11:43:36;3.88;;;3.30;;
19863;SDS011;10094;48.820;9.226;2022-12-07T11:57:33;10.10;;;5.03;;
19863;SDS011;10094;48.820;9.226;2022-12-07T12:25:27;6.35;;;5.55;;
19863;SDS011;10094;48.820;9.226;2022-12-07T12:32:14;8.93;;;5.82;;
19863;SDS011;10094;48.820;9.226;2022-12-07T12:45:40;7.60;;;5.53;;
19863;SDS011;10094;48.820;9.226;2022-12-07T13:06:20;8.00;;;5.60;;
19863;SDS011;10094;48.820;9.226;2022-12-07T13:20:04;8.25;;;5.75;;
19863;SDS011;10094;48.820;9.226;2022-12-07T13:26:58;7.40;;;5.28;;
19863;SDS011;10094;48.820;9.226;2022-12-07T13:33:42;7.50;;;6.10;;
19863;SDS011;10094;48.820;9.226;2022-12-07T13:40:27;9.10;;;6.28;;
19863;SDS011;10094;48.820;9.226;2022-12-07T13:47:12;7.68;;;6.18;;
19863;SDS011;10094;48.820;9.226;2022-12-07T13:54:11;9.10;;;7.25;;
19863;SDS011;10094;48.820;9.226;2022-12-07T14:00:55;13.65;;;7.38;;
19863;SDS011;10094;48.820;9.226;2022-12-07T14:07:57;9.60;;;7.15;;
19863;SDS011;10094;48.820;9.226;2022-12-07T14:14:46;11.15;;;6.75;;
19863;SDS011;10094;48.820;9.226;2022-12-07T14:21:31;8.63;;;6.97;;
19863;SDS011;10094;48.820;9.226;2022-12-07T14:28:25;8.70;;;7.10;;
19863;SDS011;10094;48.820;9.226;2022-12-07T14:35:10;8.25;;;6.72;;
19863;SDS011;10094;48.820;9.226;2022-12-07T14:41:54;11.77;;;8.18;;
19863;SDS011;10094;48.820;9.226;2022-12-07T14:48:37;12.15;;;7.32;;
19863;SDS011;10094;48.820;9.226;2022-12-07T14:55:39;9.50;;;7.53;;
19863;SDS011;10094;48.820;9.226;2022-12-07T15:02:21;10.00;;;7.95;;
19863;SDS011;10094;48.820;9.226;2022-12-07T15:09:04;11.35;;;7.85;;
19863;SDS011;10094;48.820;9.226;2022-12-07T15:15:47;10.25;;;7.28;;
19863;SDS011;10094;48.820;9.226;2022-12-07T15:22:31;13.32;;;9.38;;
19863;SDS011;10094;48.820;9.226;2022-12-07T15:29:19;13.13;;;9.30;;
19863;SDS011;10094;48.820;9.226;2022-12-07T15:36:04;11.75;;;9.18;;
19863;SDS011;10094;48.820;9.226;2022-12-07T15:42:47;13.00;;;8.52;;
19863;SDS011;10094;48.820;9.226;2022-12-07T15:49:30;13.60;;;8.73;;
19863;SDS011;10094;48.820;9.226;2022-12-07T15:56:12;13.88;;;9.57;;
19863;SDS011;10094;48.820;9.226;2022-12-07T16:02:55;13.75;;;8.95;;
19863;SDS011;10094;48.820;9.226;2022-12-07T16:09:37;11.57;;;8.13;;
19863;SDS011;10094;48.820;9.226;2022-12-07T16:16:20;9.85;;;7.55;;
19863;SDS011;10094;48.820;9.226;2022-12-07T16:23:06;13.15;;;8.05;;
19863;SDS011;10094;48.820;9.226;2022-12-07T16:29:49;11.82;;;8.43;;
19863;SDS011;10094;48.820;9.226;2022-12-07T16:36:31;12.57;;;9.32;;
19863;SDS011;10094;48.820;9.226;2022-12-07T16:43:34;20.27;;;13.07;;
19863;SDS011;10094;48.820;9.226;2022-12-07T16:50:17;13.65;;;9.32;;
19863;SDS011;10094;48.820;9.226;2022-12-07T16:56:59;15.38;;;8.73;;
19863;SDS011;10094;48.820;9.226;2022-12-07T17:03:42;14.18;;;9.50;;
19863;SDS011;10094;48.820;9.226;2022-12-07T17:10:25;14.15;;;9.27;;
19863;SDS011;10094;48.820;9.226;2022-12-07T17:17:09;13.73;;;9.57;;
19863;SDS011;10094;48.820;9.226;2022-12-07T17:23:51;15.20;;;9.85;;
19863;SDS011;10094;48.820;9.226;2022-12-07T17:30:36;16.98;;;9.20;;
19863;SDS011;10094;48.820;9.226;2022-12-07T17:37:20;17.58;;;10.82;;
19863;SDS011;10094;48.820;9.226;2022-12-07T17:44:04;12.90;;;8.68;;
19863;SDS011;10094;48.820;9.226;2022-12-07T17:50:48;12.50;;;9.43;;
19863;SDS011;10094;48.820;9.226;2022-12-07T17:57:49;14.43;;;9.35;;
19863;SDS011;10094;48.820;9.226;2022-12-07T18:04:32;14.18;;;8.77;;
19863;SDS011;10094;48.820;9.226;2022-12-07T18:11:15;12.70;;;9.18;;
19863;SDS011;10094;48.820;9.226;2022-12-07T18:18:00;13.23;;;10.02;;
19863;SDS011;10094;48.820;9.226;2022-12-07T18:24:43;14.40;;;10.35;;
19863;SDS011;10094;48.820;9.226;2022-12-07T18:31:26;13.35;;;9.85;;
19863;SDS011;10094;48.820;9.226;2022-12-07T18:38:09;16.35;;;11.05;;
19863;SDS011;10094;48.820;9.226;2022-12-07T18:44:51;17.45;;;10.57;;
19863;SDS011;10094;48.820;9.226;2022-12-07T18:51:33;11.85;;;8.90;;
19863;SDS011;10094;48.820;9.226;2022-12-07T18:58:16;15.32;;;9.90;;
19863;SDS011;10094;48.820;9.226;2022-12-07T19:04:58;14.18;;;8.40;;
19863;SDS011;10094;48.820;9.226;2022-12-07T19:11:43;13.02;;;8.43;;
19863;SDS011;10094;48.820;9.226;2022-12-07T19:18:33;13.07;;;9.70;;
19863;SDS011;10094;48.820;9.226;2022-12-07T19:25:15;12.15;;;8.75;;
19863;SDS011;10094;48.820;9.226;2022-12-07T19:31:58;12.55;;;9.43;;
19863;SDS011;10094;48.820;9.226;2022-12-07T19:38:42;10.18;;;8.02;;
19863;SDS011;10094;48.820;9.226;2022-12-07T19:45:25;12.85;;;8.95;;
19863;SDS011;10094;48.820;9.226;2022-12-07T19:52:14;11.95;;;8.80;;
19863;SDS011;10094;48.820;9.226;2022-12-07T19:59:00;10.73;;;7.30;;
19863;SDS011;10094;48.820;9.226;2022-12-07T20:05:43;10.93;;;6.85;;
19863;SDS011;10094;48.820;9.226;2022-12-07T20:12:26;9.73;;;6.82;;
19863;SDS011;10094;48.820;9.226;2022-12-07T20:19:27;11.38;;;8.05;;
19863;SDS011;10094;48.820;9.226;2022-12-07T20:26:11;12.23;;;8.43;;
19863;SDS011;10094;48.820;9.226;2022-12-07T20:32:55;12.05;;;7.95;;
19863;SDS011;10094;48.820;9.226;2022-12-07T20:39:38;10.60;;;8.10;;
19863;SDS011;10094;48.820;9.226;2022-12-07T20:46:26;9.85;;;7.72;;
19863;SDS011;10094;48.820;9.226;2022-12-07T20:53:11;13.77;;;8.60;;
19863;SDS011;10094;48.820;9.226;2022-12-07T20:59:57;10.48;;;6.72;;
19863;SDS011;10094;48.820;9.226;2022-12-07T21:06:44;11.07;;;7.07;;
19863;SDS011;10094;48.820;9.226;2022-12-07T21:13:26;10.05;;;7.40;;
19863;SDS011;10094;48.820;9.226;2022-12-07T21:20:09;22.55;;;14.18;;
19863;SDS011;10094;48.820;9.226;2022-12-07T21:26:52;12.13;;;7.78;;
19863;SDS011;10094;48.820;9.226;2022-12-07T21:33:37;11.43;;;7.80;;
19863;SDS011;10094;48.820;9.226;2022-12-07T21:40:20;14.23;;;8.77;;
19863;SDS011;10094;48.820;9.226;2022-12-07T21:47:05;9.20;;;7.22;;
19863;SDS011;10094;48.820;9.226;2022-12-07T21:53:48;11.02;;;7.90;;
19863;SDS011;10094;48.820;9.226;2022-12-07T22:00:32;12.50;;;9.07;;
19863;SDS011;10094;48.820;9.226;2022-12-07T22:07:14;15.10;;;10.07;;
19863;SDS011;10094;48.820;9.226;2022-12-07T22:13:57;13.07;;;8.77;;
19863;SDS011;10094;48.820;9.226;2022-12-07T22:20:58;13.88;;;9.40;;
19863;SDS011;10094;48.820;9.226;2022-12-07T22:27:41;14.13;;;9.07;;
19863;SDS011;10094;48.820;9.226;2022-12-07T22:34:24;12.82;;;8.70;;
19863;SDS011;10094;48.820;9.226;2022-12-07T22:41:07;12.93;;;8.88;;
19863;SDS011;10094;48.820;9.226;2022-12-07T22:47:51;16.17;;;9.73;;
19863;SDS011;10094;48.820;9.226;2022-12-07T22:54:34;13.13;;;8.82;;
19863;SDS011;10094;48.820;9.226;2022-12-07T23:01:17;15.32;;;9.05;;
19863;SDS011;10094;48.820;9.226;2022-12-07T23:08:00;14.82;;;9.00;;
19863;SDS011;10094;48.820;9.226;2022-12-07T23:14:43;16.20;;;9.80;;
19863;SDS011;10094;48.820;9.226;2022-12-07T23:21:25;17.95;;;10.35;;
19863;SDS011;10094;48.820;9.226;2022-12-07T23:28:08;13.05;;;9.82;;
19863;SDS011;10094;48.820;9.226;2022-12-07T23:34:50;14.45;;;9.35;;
19863;SDS011;10094;48.820;9.226;2022-12-07T23:41:32;14.10;;;9.43;;
19863;SDS011;10094;48.820;9.226;2022-12-07T23:48:15;13.60;;;9.48;;
19863;SDS011;10094;48.820;9.226;2022-12-07T23:54:57;14.63;;;9.07;;
